Time;durP1;ratioP1;P1;durP2;ratioP2;P2;SDS_P1;SDS_P2;PMS_P1;PMS_P2;Temp;Humidity;BMP_temperature;BMP_pressure;BME280_temperature;BME280_humidity;BME280_pressure;Samples;Min_cycle;Max_cycle;Signal;HPM_P1;HPM_P2
2023/05/29 00:02:44;;;;;;;;;;;14.70;96.60;;;;;;8371106;28;19940;-71
2023/05/29 00:06:46;;;;;;;;;;;14.60;96.60;;;;;;8389895;28;19936;-70
2023/05/29 00:10:47;;;;;;;;;;;14.60;96.60;;;;;;8390030;28;20372;-71
2023/05/29 00:14:49;;;;;;;;;;;14.60;96.60;;;;;;8368594;28;19925;-71
2023/05/29 00:18:51;;;;;;;;;;;14.60;96.50;;;;;;8370559;28;19928;-71
2023/05/29 00:22:53;;;;;;;;;;;14.60;96.50;;;;;;8388713;28;19924;-71
2023/05/29 00:26:55;;;;;;;;;;;14.60;96.50;;;;;;8375787;28;19925;-71
2023/05/29 00:30:56;;;;;;;;;;;14.50;96.50;;;;;;8402184;28;19932;-71
2023/05/29 00:34:58;;;;;;;;;;;14.40;96.40;;;;;;8378590;28;19932;-71
2023/05/29 00:39:00;;;;;;;;;;;14.40;96.50;;;;;;8391048;28;19977;-71
2023/05/29 00:43:02;;;;;;;;;;;14.40;96.50;;;;;;8365152;28;19940;-71
2023/05/29 00:47:04;;;;;;;;;;;14.40;96.50;;;;;;8384475;28;19929;-70
2023/05/29 00:51:06;;;;;;;;;;;14.30;96.50;;;;;;8383997;28;19925;-71
2023/05/29 00:55:08;;;;;;;;;;;14.20;96.40;;;;;;8398081;28;20002;-71
2023/05/29 00:59:11;;;;;;;;;;;14.20;96.40;;;;;;8380292;28;20333;-72
2023/05/29 01:03:14;;;;;;;;;;;14.20;96.40;;;;;;8363082;28;19924;-70
2023/05/29 01:07:16;;;;;;;;;;;14.20;96.50;;;;;;8382962;28;19925;-71
2023/05/29 01:11:18;;;;;;;;;;;14.10;96.40;;;;;;8378655;28;19928;-71
2023/05/29 01:15:32;;;;;;;;;;;14.00;96.40;;;;;;8383442;28;19948;-70
2023/05/29 01:19:58;;;;;;;;;;;14.00;96.40;;;;;;8389313;28;19932;-71
2023/05/29 01:24:12;;;;;;;;;;;14.00;96.40;;;;;;8382718;28;20376;-71
2023/05/29 01:28:15;;;;;;;;;;;13.90;96.40;;;;;;8383521;28;19947;-70
2023/05/29 01:32:17;;;;;;;;;;;13.80;96.30;;;;;;8379847;28;19925;-71
2023/05/29 01:36:19;;;;;;;;;;;13.80;96.30;;;;;;8386369;28;20384;-71
2023/05/29 01:40:21;;;;;;;;;;;13.70;96.30;;;;;;8386613;28;19925;-70
2023/05/29 01:44:23;;;;;;;;;;;13.70;96.30;;;;;;8394578;28;19925;-71
2023/05/29 01:48:25;;;;;;;;;;;13.70;96.30;;;;;;8375200;28;19924;-71
2023/05/29 01:52:27;;;;;;;;;;;13.60;96.30;;;;;;8379543;28;19929;-71
2023/05/29 01:56:29;;;;;;;;;;;13.60;96.30;;;;;;8376527;28;19929;-71
2023/05/29 02:00:32;;;;;;;;;;;13.50;96.30;;;;;;8379368;28;19925;-71
2023/05/29 02:04:33;;;;;;;;;;;13.50;96.30;;;;;;8363643;28;19924;-71
2023/05/29 02:08:35;;;;;;;;;;;13.50;96.30;;;;;;8379816;28;19975;-70
2023/05/29 02:12:37;;;;;;;;;;;13.40;96.30;;;;;;8385918;28;19928;-70
2023/05/29 02:16:40;;;;;;;;;;;13.40;96.30;;;;;;8382159;28;20372;-70
2023/05/29 02:20:42;;;;;;;;;;;13.30;96.20;;;;;;8368888;28;19972;-71
2023/05/29 02:24:44;;;;;;;;;;;13.20;96.30;;;;;;8376131;28;19932;-70
2023/05/29 02:28:46;;;;;;;;;;;13.20;96.30;;;;;;8365123;28;20253;-71
2023/05/29 02:32:47;;;;;;;;;;;13.20;96.60;;;;;;8381959;28;20391;-71
2023/05/29 02:36:49;;;;;;;;;;;13.10;96.30;;;;;;8380236;28;19924;-70
2023/05/29 02:40:51;;;;;;;;;;;13.10;96.30;;;;;;8380736;28;19924;-71
2023/05/29 02:44:54;;;;;;;;;;;13.00;96.30;;;;;;8383152;28;19925;-71
2023/05/29 02:48:56;;;;;;;;;;;13.00;96.30;;;;;;8374304;28;19929;-71
2023/05/29 02:52:57;;;;;;;;;;;13.00;96.30;;;;;;8378104;28;20333;-71
2023/05/29 02:56:59;;;;;;;;;;;13.00;96.30;;;;;;8360503;28;19929;-71
2023/05/29 03:01:03;;;;;;;;;;;12.90;96.30;;;;;;8389017;28;19928;-71
2023/05/29 03:05:06;;;;;;;;;;;12.80;96.30;;;;;;8365573;28;19928;-71
2023/05/29 03:09:08;;;;;;;;;;;12.80;96.40;;;;;;8365082;28;20366;-72
2023/05/29 03:13:09;;;;;;;;;;;12.70;96.40;;;;;;8391598;28;19925;-71
2023/05/29 03:17:12;;;;;;;;;;;12.70;96.40;;;;;;8390395;28;19932;-70
2023/05/29 03:21:14;;;;;;;;;;;12.70;96.40;;;;;;8384229;28;19924;-71
2023/05/29 03:25:15;;;;;;;;;;;12.60;96.60;;;;;;8384811;28;19932;-71
2023/05/29 03:29:17;;;;;;;;;;;12.50;96.60;;;;;;8365708;28;19948;-71
2023/05/29 03:33:19;;;;;;;;;;;12.50;96.60;;;;;;8386653;28;20320;-71
2023/05/29 03:37:20;;;;;;;;;;;12.50;96.60;;;;;;8383890;28;20265;-71
2023/05/29 03:41:22;;;;;;;;;;;12.50;96.60;;;;;;8388772;28;19924;-71
2023/05/29 03:45:24;;;;;;;;;;;12.50;96.60;;;;;;8388563;28;19925;-71
2023/05/29 03:49:26;;;;;;;;;;;12.50;96.60;;;;;;8390279;28;19929;-71
2023/05/29 03:53:27;;;;;;;;;;;12.50;96.60;;;;;;8382268;28;20387;-72
2023/05/29 03:57:29;;;;;;;;;;;12.50;96.60;;;;;;8381858;28;20312;-72
2023/05/29 04:01:31;;;;;;;;;;;12.40;96.60;;;;;;8387732;28;20403;-71
2023/05/29 04:05:33;;;;;;;;;;;12.40;96.70;;;;;;8376319;28;20433;-71
2023/05/29 04:09:34;;;;;;;;;;;12.40;96.60;;;;;;8379764;28;19977;-71
2023/05/29 04:13:36;;;;;;;;;;;12.40;96.60;;;;;;8357917;28;19925;-71
2023/05/29 04:17:38;;;;;;;;;;;12.40;96.90;;;;;;8359625;28;19936;-71
2023/05/29 04:21:39;;;;;;;;;;;12.50;96.70;;;;;;8376606;28;20279;-70
2023/05/29 04:25:41;;;;;;;;;;;12.50;96.80;;;;;;8358381;28;19935;-70
2023/05/29 04:29:43;;;;;;;;;;;12.50;96.80;;;;;;8373626;28;19924;-71
2023/05/29 04:33:45;;;;;;;;;;;12.50;96.90;;;;;;8362857;28;19932;-71
2023/05/29 04:37:47;;;;;;;;;;;12.50;97.00;;;;;;8370167;28;21971;-70
2023/05/29 04:41:49;;;;;;;;;;;12.60;97.00;;;;;;8362312;28;19933;-72
2023/05/29 04:45:52;;;;;;;;;;;12.60;97.10;;;;;;8382506;28;19947;-72
2023/05/29 04:49:53;;;;;;;;;;;12.60;97.10;;;;;;8388335;28;19924;-71
2023/05/29 04:53:55;;;;;;;;;;;12.70;97.20;;;;;;8368926;28;19955;-71
2023/05/29 04:57:57;;;;;;;;;;;12.70;97.30;;;;;;8386335;28;20272;-72
2023/05/29 05:01:58;;;;;;;;;;;12.80;97.40;;;;;;8382423;28;19925;-72
2023/05/29 05:06:05;;;;;;;;;;;12.80;97.50;;;;;;8377694;28;19936;-72
2023/05/29 05:10:07;;;;;;;;;;;12.90;97.60;;;;;;8383739;28;19931;-72
2023/05/29 05:14:09;;;;;;;;;;;12.90;97.70;;;;;;8384401;28;19924;-72
2023/05/29 05:18:10;;;;;;;;;;;13.00;97.70;;;;;;8384877;28;19998;-72
2023/05/29 05:22:12;;;;;;;;;;;13.00;97.80;;;;;;8363052;28;19924;-72
2023/05/29 05:26:14;;;;;;;;;;;13.10;97.80;;;;;;8386097;28;19924;-71
2023/05/29 05:30:15;;;;;;;;;;;13.20;97.90;;;;;;8382165;28;20399;-72
2023/05/29 05:34:17;;;;;;;;;;;13.20;98.00;;;;;;8383194;28;19924;-72
2023/05/29 05:38:19;;;;;;;;;;;13.30;98.10;;;;;;8390135;28;19925;-71
2023/05/29 05:42:20;;;;;;;;;;;13.40;98.10;;;;;;8389324;28;19925;-71
2023/05/29 05:46:22;;;;;;;;;;;13.40;98.10;;;;;;8386050;28;19932;-71
2023/05/29 05:50:26;;;;;;;;;;;13.50;98.10;;;;;;8379472;28;20453;-71
2023/05/29 05:54:27;;;;;;;;;;;13.60;98.20;;;;;;8378935;28;21047;-71
2023/05/29 05:58:29;;;;;;;;;;;13.60;98.20;;;;;;8366263;28;19936;-71
2023/05/29 06:02:31;;;;;;;;;;;13.70;98.20;;;;;;8373256;28;19924;-71
2023/05/29 06:06:33;;;;;;;;;;;13.70;98.20;;;;;;8362898;28;19955;-71
2023/05/29 06:10:34;;;;;;;;;;;13.80;98.30;;;;;;8382139;28;19924;-71
2023/05/29 06:14:36;;;;;;;;;;;13.80;98.30;;;;;;8380820;28;19924;-71
2023/05/29 06:18:38;;;;;;;;;;;13.90;98.30;;;;;;8382946;28;19982;-71
2023/05/29 06:22:40;;;;;;;;;;;14.00;98.30;;;;;;8382634;28;19929;-71
2023/05/29 06:26:43;;;;;;;;;;;14.10;98.40;;;;;;8377239;28;20210;-71
2023/05/29 06:30:45;;;;;;;;;;;14.10;98.30;;;;;;8386622;28;20291;-70
2023/05/29 06:34:52;;;;;;;;;;;14.20;98.30;;;;;;8380058;28;19924;-70
2023/05/29 06:38:54;;;;;;;;;;;14.20;98.30;;;;;;8382130;28;19933;-71
2023/05/29 06:42:55;;;;;;;;;;;14.30;98.30;;;;;;8370204;28;20331;-70
2023/05/29 06:46:57;;;;;;;;;;;14.30;98.20;;;;;;8376765;28;20288;-71
2023/05/29 06:50:59;;;;;;;;;;;14.30;98.10;;;;;;8379984;28;19924;-70
2023/05/29 06:55:01;;;;;;;;;;;14.30;98.10;;;;;;8372786;28;19931;-71
2023/05/29 06:59:02;;;;;;;;;;;14.40;98.20;;;;;;8383860;28;19939;-70
2023/05/29 07:03:04;;;;;;;;;;;14.50;98.20;;;;;;8380426;28;19932;-70
2023/05/29 07:07:06;;;;;;;;;;;14.60;98.30;;;;;;8375224;28;19924;-71
2023/05/29 07:11:07;;;;;;;;;;;14.70;98.30;;;;;;8384838;28;19932;-71
2023/05/29 07:15:09;;;;;;;;;;;14.80;98.40;;;;;;8390647;28;19932;-70
2023/05/29 07:19:13;;;;;;;;;;;15.00;98.50;;;;;;8386849;28;19928;-70
2023/05/29 07:23:20;;;;;;;;;;;15.10;98.50;;;;;;8389659;28;19928;-71
2023/05/29 07:27:21;;;;;;;;;;;15.20;98.50;;;;;;8385051;28;19925;-71
2023/05/29 07:31:23;;;;;;;;;;;15.30;98.70;;;;;;8369384;28;19924;-70
2023/05/29 07:35:25;;;;;;;;;;;15.40;98.50;;;;;;8393108;28;19924;-70
2023/05/29 07:39:27;;;;;;;;;;;15.50;98.80;;;;;;8390955;28;19982;-71
2023/05/29 07:43:28;;;;;;;;;;;15.50;98.70;;;;;;8403179;28;19948;-70
2023/05/29 07:47:30;;;;;;;;;;;15.50;98.30;;;;;;8398425;28;20291;-71
2023/05/29 07:51:32;;;;;;;;;;;15.60;98.30;;;;;;8392056;28;21177;-70
2023/05/29 07:55:34;;;;;;;;;;;15.60;98.30;;;;;;8376756;28;20608;-70
2023/05/29 07:59:36;;;;;;;;;;;15.70;98.40;;;;;;8388025;28;19931;-70
2023/05/29 08:03:38;;;;;;;;;;;15.80;98.40;;;;;;8394335;28;19929;-70
2023/05/29 08:07:39;;;;;;;;;;;15.90;98.50;;;;;;8377709;28;20384;-70
2023/05/29 08:11:41;;;;;;;;;;;16.00;98.40;;;;;;8363629;28;20350;-71
2023/05/29 08:15:43;;;;;;;;;;;16.00;98.40;;;;;;8371597;28;20394;-71
2023/05/29 08:19:45;;;;;;;;;;;16.00;98.30;;;;;;8385895;28;20228;-69
2023/05/29 08:23:47;;;;;;;;;;;16.00;98.10;;;;;;8383969;28;19933;-71
2023/05/29 08:27:49;;;;;;;;;;;16.00;98.00;;;;;;8383908;28;19986;-71
2023/05/29 08:31:51;;;;;;;;;;;16.00;97.80;;;;;;8368087;28;19924;-71
2023/05/29 08:35:53;;;;;;;;;;;15.90;97.70;;;;;;8372871;28;19932;-70
2023/05/29 08:39:55;;;;;;;;;;;15.80;97.70;;;;;;8384233;28;19924;-71
2023/05/29 08:43:58;;;;;;;;;;;15.90;97.80;;;;;;8379535;28;19936;-70
2023/05/29 08:48:01;;;;;;;;;;;15.90;97.70;;;;;;8399020;28;20411;-71
2023/05/29 08:52:09;;;;;;;;;;;15.90;97.60;;;;;;8385165;28;20279;-70
2023/05/29 08:56:10;;;;;;;;;;;16.00;97.70;;;;;;8382011;28;19924;-70
2023/05/29 09:00:28;;;;;;;;;;;16.00;97.70;;;;;;8375917;28;19924;-70
2023/05/29 09:04:30;;;;;;;;;;;16.10;97.90;;;;;;8380787;28;20372;-70
2023/05/29 09:08:32;;;;;;;;;;;16.20;97.90;;;;;;8369389;28;19925;-71
2023/05/29 09:12:34;;;;;;;;;;;16.30;98.10;;;;;;8355281;28;19961;-71
2023/05/29 09:16:41;;;;;;;;;;;16.40;98.00;;;;;;8360525;28;19931;-71
2023/05/29 09:20:43;;;;;;;;;;;16.50;98.10;;;;;;8369264;28;20376;-71
2023/05/29 09:24:48;;;;;;;;;;;16.50;97.80;;;;;;8377756;28;19959;-71
2023/05/29 09:28:50;;;;;;;;;;;16.50;97.60;;;;;;8363397;28;19928;-71
2023/05/29 09:32:54;;;;;;;;;;;16.50;97.70;;;;;;8366596;28;19979;-71
2023/05/29 09:37:07;;;;;;;;;;;16.60;97.70;;;;;;8376740;28;19971;-71
2023/05/29 09:41:09;;;;;;;;;;;16.60;97.80;;;;;;8361386;28;19932;-71
2023/05/29 09:45:12;;;;;;;;;;;16.70;97.80;;;;;;8348504;28;20277;-71
2023/05/29 09:49:13;;;;;;;;;;;16.80;97.90;;;;;;8359938;28;19975;-71
2023/05/29 09:53:16;;;;;;;;;;;16.90;97.90;;;;;;8358075;28;19929;-71
2023/05/29 09:57:17;;;;;;;;;;;16.90;97.60;;;;;;8359835;28;19936;-71
2023/05/29 10:01:19;;;;;;;;;;;16.90;97.60;;;;;;8348429;28;20103;-70
2023/05/29 10:05:21;;;;;;;;;;;17.00;97.50;;;;;;8335870;28;20387;-71
2023/05/29 10:09:25;;;;;;;;;;;17.10;97.40;;;;;;8340073;28;20292;-71
2023/05/29 10:13:27;;;;;;;;;;;17.10;97.50;;;;;;8359289;28;19929;-71
2023/05/29 10:17:32;;;;;;;;;;;17.10;97.60;;;;;;8363412;28;20331;-71
2023/05/29 10:21:36;;;;;;;;;;;17.20;97.70;;;;;;8370648;28;19940;-71
2023/05/29 10:25:39;;;;;;;;;;;17.30;97.60;;;;;;8371171;28;19928;-71
2023/05/29 10:29:48;;;;;;;;;;;17.30;97.20;;;;;;8370478;28;19940;-71
2023/05/29 10:34:09;;;;;;;;;;;17.30;97.30;;;;;;8369081;28;19929;-71
2023/05/29 10:38:16;;;;;;;;;;;17.20;97.50;;;;;;8369502;28;20303;-71
2023/05/29 10:42:36;;;;;;;;;;;17.30;97.30;;;;;;8373170;28;19931;-71
2023/05/29 10:46:44;;;;;;;;;;;17.40;97.20;;;;;;8368342;28;19925;-70
2023/05/29 10:50:47;;;;;;;;;;;17.40;97.30;;;;;;8368903;28;19978;-71
2023/05/29 10:54:52;;;;;;;;;;;17.50;97.20;;;;;;8370248;28;19935;-71
2023/05/29 10:58:55;;;;;;;;;;;17.50;97.20;;;;;;8352204;28;20287;-71
2023/05/29 11:02:57;;;;;;;;;;;17.60;97.10;;;;;;8365136;28;19929;-71
2023/05/29 11:06:59;;;;;;;;;;;17.60;97.20;;;;;;8369776;28;19978;-72
2023/05/29 11:11:01;;;;;;;;;;;17.70;97.20;;;;;;8364878;28;20096;-71
2023/05/29 11:15:03;;;;;;;;;;;17.70;96.90;;;;;;8363507;28;19954;-71
2023/05/29 11:19:05;;;;;;;;;;;17.70;96.90;;;;;;8366918;28;19994;-71
2023/05/29 11:23:08;;;;;;;;;;;17.80;96.70;;;;;;8366484;28;19925;-71
2023/05/29 11:27:10;;;;;;;;;;;17.80;96.80;;;;;;8359517;28;20012;-71
2023/05/29 11:31:12;;;;;;;;;;;17.90;96.70;;;;;;8367867;28;19928;-71
2023/05/29 11:35:13;;;;;;;;;;;17.90;96.60;;;;;;8368265;28;20438;-70
2023/05/29 11:39:15;;;;;;;;;;;18.00;96.70;;;;;;8369328;28;19928;-71
2023/05/29 11:43:17;;;;;;;;;;;18.10;96.70;;;;;;8374568;28;19931;-71
2023/05/29 11:47:22;;;;;;;;;;;18.10;96.60;;;;;;8357633;28;20016;-71
2023/05/29 11:51:24;;;;;;;;;;;18.10;96.50;;;;;;8380344;28;19928;-71
2023/05/29 11:55:26;;;;;;;;;;;18.10;96.30;;;;;;8363132;28;19928;-71
2023/05/29 11:59:29;;;;;;;;;;;18.20;96.30;;;;;;8355027;28;19978;-71
2023/05/29 12:03:38;;;;;;;;;;;18.30;96.20;;;;;;8371262;28;19924;-72
2023/05/29 12:07:53;;;;;;;;;;;18.30;96.10;;;;;;8372166;28;19932;-72
2023/05/29 12:12:05;;;;;;;;;;;18.40;96.20;;;;;;8369265;28;19928;-72
2023/05/29 12:16:07;;;;;;;;;;;18.40;96.10;;;;;;8370252;28;19932;-73
2023/05/29 12:20:10;;;;;;;;;;;18.50;95.90;;;;;;8367756;28;19929;-70
2023/05/29 12:24:12;;;;;;;;;;;18.50;95.70;;;;;;8370948;28;20014;-71
2023/05/29 12:28:15;;;;;;;;;;;18.40;95.50;;;;;;8365348;28;19925;-72
2023/05/29 12:32:19;;;;;;;;;;;18.40;95.40;;;;;;8371234;28;19936;-72
2023/05/29 12:36:25;;;;;;;;;;;18.40;95.70;;;;;;8367229;28;19933;-72
2023/05/29 12:40:27;;;;;;;;;;;18.50;95.70;;;;;;8365748;28;19974;-71
2023/05/29 12:44:29;;;;;;;;;;;18.50;95.70;;;;;;8363430;28;19925;-71
2023/05/29 12:48:30;;;;;;;;;;;18.50;95.20;;;;;;8370151;28;20364;-71
2023/05/29 12:52:32;;;;;;;;;;;18.50;95.30;;;;;;8361584;28;20329;-73
2023/05/29 12:56:34;;;;;;;;;;;18.40;94.80;;;;;;8361231;28;19924;-71
2023/05/29 13:00:38;;;;;;;;;;;18.40;95.00;;;;;;8368901;28;19924;-71
2023/05/29 13:04:39;;;;;;;;;;;18.50;95.10;;;;;;8366880;28;19982;-71
2023/05/29 13:08:41;;;;;;;;;;;18.60;95.00;;;;;;8347263;28;19975;-72
2023/05/29 13:12:43;;;;;;;;;;;18.60;95.10;;;;;;8362434;28;20584;-72
2023/05/29 13:16:45;;;;;;;;;;;18.70;95.00;;;;;;8339978;28;19929;-71
2023/05/29 13:20:47;;;;;;;;;;;18.70;94.50;;;;;;8355472;28;19969;-71
2023/05/29 13:24:49;;;;;;;;;;;18.70;94.30;;;;;;8362415;28;19936;-72
2023/05/29 13:28:51;;;;;;;;;;;18.60;94.10;;;;;;8364957;28;19928;-71
2023/05/29 13:32:53;;;;;;;;;;;18.60;94.20;;;;;;8363789;28;19968;-71
2023/05/29 13:36:55;;;;;;;;;;;18.70;94.30;;;;;;8368093;28;19940;-71
2023/05/29 13:40:57;;;;;;;;;;;18.80;94.20;;;;;;8361973;28;20350;-71
2023/05/29 13:44:58;;;;;;;;;;;18.80;94.20;;;;;;8361869;28;19932;-71
2023/05/29 13:49:00;;;;;;;;;;;18.90;94.10;;;;;;8359354;28;20403;-72
2023/05/29 13:53:02;;;;;;;;;;;18.90;94.00;;;;;;8355197;28;19933;-72
2023/05/29 13:57:04;;;;;;;;;;;19.00;94.00;;;;;;8356599;28;19932;-72
2023/05/29 14:01:06;;;;;;;;;;;19.10;94.20;;;;;;8357821;28;20379;-71
2023/05/29 14:05:07;;;;;;;;;;;19.20;94.10;;;;;;8368125;28;20107;-71
2023/05/29 14:09:10;;;;;;;;;;;19.20;93.60;;;;;;8357635;28;19974;-71
2023/05/29 14:13:11;;;;;;;;;;;19.20;93.80;;;;;;8357421;28;20368;-71
2023/05/29 14:17:14;;;;;;;;;;;19.20;93.90;;;;;;8339586;28;19936;-71
2023/05/29 14:21:16;;;;;;;;;;;19.30;94.00;;;;;;8358765;28;20363;-72
2023/05/29 14:25:18;;;;;;;;;;;19.30;94.10;;;;;;8342795;28;20010;-72
2023/05/29 14:29:19;;;;;;;;;;;19.40;94.20;;;;;;8356826;28;20369;-73
2023/05/29 14:33:21;;;;;;;;;;;19.50;94.10;;;;;;8360510;28;19935;-71
2023/05/29 14:37:22;;;;;;;;;;;19.60;94.20;;;;;;8370215;28;19932;-72
2023/05/29 14:41:25;;;;;;;;;;;19.70;94.20;;;;;;8343684;28;20268;-71
2023/05/29 14:45:27;;;;;;;;;;;19.80;93.90;;;;;;8357355;28;19929;-72
2023/05/29 14:49:31;;;;;;;;;;;19.90;93.90;;;;;;8353403;28;20438;-72
2023/05/29 14:53:35;;;;;;;;;;;20.00;93.70;;;;;;8351036;28;20030;-72
2023/05/29 14:57:36;;;;;;;;;;;20.00;93.70;;;;;;8339112;28;19932;-71
2023/05/29 15:01:38;;;;;;;;;;;20.00;93.40;;;;;;8356460;28;19928;-71
2023/05/29 15:05:40;;;;;;;;;;;20.00;93.20;;;;;;8360603;28;19959;-71
2023/05/29 15:09:42;;;;;;;;;;;20.00;93.30;;;;;;8361809;28;19929;-72
2023/05/29 15:13:44;;;;;;;;;;;20.00;93.20;;;;;;8364832;28;19928;-71
2023/05/29 15:17:50;;;;;;;;;;;20.00;93.20;;;;;;8357475;28;19940;-72
2023/05/29 15:21:52;;;;;;;;;;;20.00;92.80;;;;;;8366635;28;20310;-71
2023/05/29 15:25:53;;;;;;;;;;;20.00;92.80;;;;;;8348734;28;19932;-72
2023/05/29 15:30:07;;;;;;;;;;;20.00;92.50;;;;;;8364318;28;19978;-71
2023/05/29 15:34:08;;;;;;;;;;;20.10;92.50;;;;;;8373460;28;20332;-72
2023/05/29 15:38:12;;;;;;;;;;;20.10;92.40;;;;;;8365550;28;19936;-72
2023/05/29 15:42:14;;;;;;;;;;;20.20;92.70;;;;;;8355314;28;19928;-72
2023/05/29 15:46:16;;;;;;;;;;;20.40;92.70;;;;;;8361116;28;19924;-73
2023/05/29 15:50:17;;;;;;;;;;;20.60;92.10;;;;;;8348967;28;19931;-72
2023/05/29 15:54:19;;;;;;;;;;;20.90;92.00;;;;;;8356670;28;19925;-71
2023/05/29 15:58:21;;;;;;;;;;;21.20;92.00;;;;;;8338902;28;19924;-71
2023/05/29 16:02:23;;;;;;;;;;;21.50;91.90;;;;;;8366622;28;19929;-72
2023/05/29 16:06:25;;;;;;;;;;;21.80;91.70;;;;;;8367272;28;19929;-73
2023/05/29 16:10:27;;;;;;;;;;;22.00;92.10;;;;;;8367285;28;19967;-72
2023/05/29 16:14:29;;;;;;;;;;;22.20;91.60;;;;;;8357486;28;19937;-71
2023/05/29 16:18:31;;;;;;;;;;;22.40;91.80;;;;;;8362307;28;20331;-72
2023/05/29 16:22:34;;;;;;;;;;;22.70;91.70;;;;;;8359981;28;19943;-72
2023/05/29 16:26:42;;;;;;;;;;;22.90;91.40;;;;;;8361597;28;19932;-72
2023/05/29 16:30:44;;;;;;;;;;;23.10;91.60;;;;;;8380844;28;19942;-72
2023/05/29 16:34:46;;;;;;;;;;;23.20;91.10;;;;;;8361955;28;20759;-72
2023/05/29 16:38:47;;;;;;;;;;;23.20;91.30;;;;;;8348911;28;19933;-73
2023/05/29 16:42:49;;;;;;;;;;;23.30;91.00;;;;;;8361540;28;19928;-72
2023/05/29 16:46:50;;;;;;;;;;;23.20;91.00;;;;;;8378979;28;19936;-72
2023/05/29 16:50:52;;;;;;;;;;;23.10;91.00;;;;;;8363814;28;20269;-72
2023/05/29 16:54:57;;;;;;;;;;;23.00;91.10;;;;;;8373266;28;19925;-72
2023/05/29 16:59:00;;;;;;;;;;;23.00;90.80;;;;;;8364565;28;19924;-73
2023/05/29 17:03:03;;;;;;;;;;;23.00;91.20;;;;;;8368748;28;20429;-73
2023/05/29 17:07:05;;;;;;;;;;;22.90;91.10;;;;;;8342327;28;19964;-72
2023/05/29 17:11:07;;;;;;;;;;;22.70;91.10;;;;;;8365409;28;19925;-72
2023/05/29 17:15:09;;;;;;;;;;;22.40;90.90;;;;;;8359642;28;19970;-72
2023/05/29 17:19:10;;;;;;;;;;;22.10;90.50;;;;;;8360727;28;19932;-73
2023/05/29 17:23:13;;;;;;;;;;;21.80;90.00;;;;;;8378814;28;19935;-72
2023/05/29 17:27:14;;;;;;;;;;;21.60;89.00;;;;;;8356999;28;20299;-72
2023/05/29 17:31:16;;;;;;;;;;;21.30;88.70;;;;;;8359335;28;19940;-72
2023/05/29 17:35:18;;;;;;;;;;;21.10;88.30;;;;;;8350414;28;19968;-71
2023/05/29 17:39:20;;;;;;;;;;;20.80;88.20;;;;;;8374364;28;20019;-71
2023/05/29 17:43:22;;;;;;;;;;;20.70;87.90;;;;;;8369260;28;19961;-71
2023/05/29 17:47:24;;;;;;;;;;;20.40;87.70;;;;;;8375444;28;19928;-72
2023/05/29 17:51:25;;;;;;;;;;;20.20;87.80;;;;;;8374610;28;19933;-71
2023/05/29 17:55:27;;;;;;;;;;;20.10;87.90;;;;;;8371379;28;19929;-72
2023/05/29 17:59:29;;;;;;;;;;;19.90;87.60;;;;;;8370110;28;19933;-72
2023/05/29 18:03:31;;;;;;;;;;;19.80;87.40;;;;;;8357953;28;19925;-71
2023/05/29 18:07:33;;;;;;;;;;;19.60;87.20;;;;;;8361432;28;20384;-71
2023/05/29 18:11:35;;;;;;;;;;;19.50;87.10;;;;;;8360126;28;19925;-71
2023/05/29 18:15:37;;;;;;;;;;;19.40;87.10;;;;;;8350337;28;19929;-71
2023/05/29 18:19:38;;;;;;;;;;;19.30;86.90;;;;;;8356492;28;19932;-71
2023/05/29 18:23:41;;;;;;;;;;;19.10;86.80;;;;;;8356879;28;19932;-71
2023/05/29 18:27:43;;;;;;;;;;;19.10;86.80;;;;;;8357417;28;19982;-71
2023/05/29 18:31:44;;;;;;;;;;;19.00;86.70;;;;;;8356592;28;19948;-72
2023/05/29 18:35:46;;;;;;;;;;;19.00;86.60;;;;;;8360241;28;19971;-72
2023/05/29 18:39:48;;;;;;;;;;;18.80;86.30;;;;;;8364996;28;20329;-71
2023/05/29 18:43:51;;;;;;;;;;;18.70;86.40;;;;;;8349209;28;20292;-71
2023/05/29 18:47:53;;;;;;;;;;;18.60;86.10;;;;;;8366759;28;19978;-71
2023/05/29 18:51:55;;;;;;;;;;;18.60;86.20;;;;;;8372713;28;19932;-71
2023/05/29 18:55:56;;;;;;;;;;;18.50;86.10;;;;;;8381374;28;20377;-72
2023/05/29 18:59:58;;;;;;;;;;;18.40;86.00;;;;;;8367937;28;19925;-72
2023/05/29 19:04:00;;;;;;;;;;;18.30;85.90;;;;;;8366520;28;19947;-71
2023/05/29 19:08:06;;;;;;;;;;;18.20;85.80;;;;;;8363985;28;19925;-72
2023/05/29 19:12:09;;;;;;;;;;;18.20;85.30;;;;;;8370264;28;19928;-71
2023/05/29 19:16:11;;;;;;;;;;;18.10;84.70;;;;;;8370568;28;19932;-72
2023/05/29 19:20:13;;;;;;;;;;;17.90;84.30;;;;;;8372763;28;19933;-71
2023/05/29 19:24:17;;;;;;;;;;;17.80;84.20;;;;;;8381708;28;19924;-72
2023/05/29 19:28:19;;;;;;;;;;;17.80;83.90;;;;;;8353402;28;19969;-71
2023/05/29 19:32:24;;;;;;;;;;;17.70;83.70;;;;;;8378994;28;20004;-72
2023/05/29 19:36:26;;;;;;;;;;;17.60;83.70;;;;;;8366139;28;20315;-71
2023/05/29 19:40:28;;;;;;;;;;;17.50;83.60;;;;;;8367965;28;19947;-71
2023/05/29 19:44:30;;;;;;;;;;;17.40;83.40;;;;;;8362863;28;19955;-72
2023/05/29 20:23:56;;;;;;;;;;;16.50;83.00;;;;;;8358275;28;20022;-71
2023/05/29 20:27:58;;;;;;;;;;;16.40;83.00;;;;;;8357766;28;19928;-72
2023/05/29 20:32:00;;;;;;;;;;;16.40;83.10;;;;;;8361265;28;19929;-72
2023/05/29 20:36:01;;;;;;;;;;;16.30;83.10;;;;;;8360809;28;19932;-72
2023/05/29 20:40:03;;;;;;;;;;;16.30;83.10;;;;;;8360017;28;19929;-71
2023/05/29 20:44:06;;;;;;;;;;;16.20;83.10;;;;;;8357753;28;19932;-71
2023/05/29 20:48:08;;;;;;;;;;;16.10;83.10;;;;;;8354659;28;19925;-71
2023/05/29 20:52:09;;;;;;;;;;;16.00;83.10;;;;;;8362156;28;20392;-71
2023/05/29 20:56:12;;;;;;;;;;;16.00;83.30;;;;;;8362529;28;19936;-72
2023/05/29 21:00:14;;;;;;;;;;;15.90;83.30;;;;;;8358020;28;19967;-71
2023/05/29 21:04:16;;;;;;;;;;;15.80;83.40;;;;;;8373452;28;20033;-71
2023/05/29 21:08:17;;;;;;;;;;;15.70;83.40;;;;;;8379485;28;20261;-71
2023/05/29 21:12:19;;;;;;;;;;;15.70;83.70;;;;;;8382804;28;20022;-71
2023/05/29 21:16:21;;;;;;;;;;;15.50;83.90;;;;;;8382267;28;20425;-71
2023/05/29 21:20:23;;;;;;;;;;;15.40;84.00;;;;;;8384167;28;19925;-72
2023/05/29 21:24:25;;;;;;;;;;;15.30;84.10;;;;;;8382360;28;20311;-71
2023/05/29 21:28:27;;;;;;;;;;;15.30;84.30;;;;;;8367382;28;19982;-71
2023/05/29 21:32:29;;;;;;;;;;;15.30;84.50;;;;;;8388560;28;19982;-71
2023/05/29 21:36:31;;;;;;;;;;;15.20;84.60;;;;;;8379243;28;19936;-71
2023/05/29 21:40:32;;;;;;;;;;;15.10;84.80;;;;;;8376342;28;19925;-71
2023/05/29 21:44:34;;;;;;;;;;;15.00;85.10;;;;;;8365100;28;19928;-71
2023/05/29 21:48:36;;;;;;;;;;;15.00;85.20;;;;;;8372005;28;19931;-71
2023/05/29 21:52:38;;;;;;;;;;;14.90;85.20;;;;;;8381611;28;19929;-71
2023/05/29 21:56:39;;;;;;;;;;;14.90;85.40;;;;;;8372550;28;20369;-71
2023/05/29 22:00:41;;;;;;;;;;;14.80;85.30;;;;;;8381778;28;19924;-71
2023/05/29 22:04:42;;;;;;;;;;;14.80;85.50;;;;;;8366532;28;19982;-71
2023/05/29 22:08:45;;;;;;;;;;;14.70;85.60;;;;;;8368928;28;20388;-71
2023/05/29 22:12:49;;;;;;;;;;;14.70;85.90;;;;;;8377021;28;20365;-71
2023/05/29 22:16:53;;;;;;;;;;;14.60;86.20;;;;;;8381126;28;20340;-71
2023/05/29 22:20:55;;;;;;;;;;;14.50;86.30;;;;;;8381505;28;19990;-71
2023/05/29 22:24:58;;;;;;;;;;;14.50;86.20;;;;;;8376820;28;19978;-71
2023/05/29 22:29:00;;;;;;;;;;;14.40;86.10;;;;;;8378495;28;19924;-71
2023/05/29 22:33:02;;;;;;;;;;;14.40;86.30;;;;;;8371700;28;19925;-71
2023/05/29 22:37:04;;;;;;;;;;;14.40;86.40;;;;;;8378861;28;19971;-71
2023/05/29 22:41:06;;;;;;;;;;;14.30;86.60;;;;;;8380409;28;19933;-71
2023/05/29 22:45:08;;;;;;;;;;;14.30;86.60;;;;;;8370852;28;19978;-71
2023/05/29 22:49:12;;;;;;;;;;;14.20;86.70;;;;;;8357845;28;19924;-72
2023/05/29 22:53:13;;;;;;;;;;;14.20;86.80;;;;;;8383521;28;19925;-71
2023/05/29 22:57:15;;;;;;;;;;;14.10;86.70;;;;;;8368881;28;19933;-71
2023/05/29 23:01:17;;;;;;;;;;;14.10;87.10;;;;;;8376301;28;19925;-71
2023/05/29 23:05:18;;;;;;;;;;;13.90;87.20;;;;;;8377516;28;19965;-71
2023/05/29 23:09:20;;;;;;;;;;;13.90;87.30;;;;;;8369703;28;20615;-71
2023/05/29 23:13:22;;;;;;;;;;;13.90;87.40;;;;;;8383947;28;20334;-71
2023/05/29 23:17:23;;;;;;;;;;;13.90;87.50;;;;;;8372606;28;19925;-71
2023/05/29 23:21:26;;;;;;;;;;;13.80;87.40;;;;;;8370448;28;20383;-71
2023/05/29 23:25:27;;;;;;;;;;;13.80;87.40;;;;;;8376268;28;20338;-71
2023/05/29 23:29:29;;;;;;;;;;;13.70;87.50;;;;;;8386389;28;19924;-71
2023/05/29 23:33:31;;;;;;;;;;;13.70;87.60;;;;;;8388154;28;19924;-71
2023/05/29 23:37:33;;;;;;;;;;;13.70;87.70;;;;;;8367628;28;20333;-71
2023/05/29 23:41:36;;;;;;;;;;;13.60;87.70;;;;;;8382342;28;19929;-71
2023/05/29 23:45:38;;;;;;;;;;;13.60;87.70;;;;;;8371286;28;19924;-71
2023/05/29 23:49:40;;;;;;;;;;;13.50;87.80;;;;;;8389598;28;19975;-71
2023/05/29 23:53:41;;;;;;;;;;;13.50;87.90;;;;;;8380570;28;19932;-71
2023/05/29 23:57:43;;;;;;;;;;;13.40;88.10;;;;;;8383578;28;20284;-71
